createdAt,value
2019-03-26T00:01:45.072Z,95871.55
2019-03-26T00:04:15.512Z,95864.91
2019-03-26T00:06:45.955Z,95863.14
2019-03-26T00:09:16.411Z,95860.16
2019-03-26T00:11:46.843Z,95864.00
2019-03-26T00:14:17.366Z,95861.85
2019-03-26T00:16:48.045Z,95858.27
2019-03-26T00:19:18.520Z,95853.13
2019-03-26T00:21:49.130Z,95860.94
2019-03-26T00:24:19.631Z,95856.38
2019-03-26T00:26:50.139Z,95862.28
2019-03-26T00:29:20.599Z,95859.74
2019-03-26T00:31:51.228Z,95868.56
2019-03-26T00:34:21.771Z,95863.40
2019-03-26T00:36:52.197Z,95861.73
2019-03-26T00:39:22.569Z,95851.14
2019-03-26T00:41:53.019Z,95859.98
2019-03-26T00:44:23.440Z,95857.53
2019-03-26T00:46:53.950Z,95864.17
2019-03-26T00:49:24.409Z,95857.38
2019-03-26T00:51:54.841Z,95856.53
2019-03-26T00:54:25.365Z,95862.79
2019-03-26T00:56:55.818Z,95864.91
2019-03-26T00:59:26.290Z,95866.34
2019-03-26T01:01:56.742Z,95869.17
2019-03-26T01:04:32.594Z,95856.99
2019-03-26T01:06:59.448Z,95858.24
2019-03-26T01:09:29.951Z,95858.91
2019-03-26T01:12:00.472Z,95860.61
2019-03-26T01:14:30.991Z,95863.08
2019-03-26T01:17:01.643Z,95870.53
2019-03-26T01:19:32.168Z,95871.09
2019-03-26T01:22:02.600Z,95882.68
2019-03-26T01:24:33.035Z,95895.17
2019-03-26T01:27:03.501Z,95904.52
2019-03-26T01:29:33.992Z,95905.75
2019-03-26T01:32:04.623Z,95908.98
2019-03-26T01:34:45.480Z,95913.92
2019-03-26T01:37:07.226Z,95918.66
2019-03-26T01:39:37.679Z,95908.66
2019-03-26T01:42:08.176Z,95916.25
2019-03-26T01:44:38.685Z,95907.23
2019-03-26T01:47:09.198Z,95915.13
2019-03-26T01:49:39.650Z,95924.75
2019-03-26T01:52:10.087Z,95929.95
2019-03-26T01:54:40.518Z,95924.55
2019-03-26T01:57:10.958Z,95926.62
2019-03-26T01:59:41.416Z,95928.38
2019-03-26T02:02:11.937Z,95929.42
2019-03-26T02:04:42.474Z,95926.05
2019-03-26T02:07:12.929Z,95923.72
2019-03-26T02:09:43.377Z,95929.02
2019-03-26T02:12:14.038Z,95926.55
2019-03-26T02:14:44.487Z,95931.47
2019-03-26T02:17:15.352Z,95934.20
2019-03-26T02:19:45.874Z,95940.84
2019-03-26T02:22:16.536Z,95947.53
2019-03-26T02:24:47.029Z,95949.13
2019-03-26T02:27:17.474Z,95950.27
2019-03-26T02:29:47.928Z,95951.50
2019-03-26T02:32:18.303Z,95951.84
2019-03-26T02:34:48.651Z,95943.76
2019-03-26T02:37:19.080Z,95945.02
2019-03-26T02:39:50.491Z,95951.71
2019-03-26T02:42:20.856Z,95943.89
2019-03-26T02:44:52.404Z,95944.30
2019-03-26T02:47:22.774Z,95949.77
2019-03-26T02:49:53.214Z,95953.59
2019-03-26T02:52:23.742Z,95950.92
2019-03-26T02:54:54.270Z,95954.97
2019-03-26T02:57:25.789Z,95967.16
2019-03-26T02:59:56.493Z,95965.47
2019-03-26T03:02:26.933Z,95970.67
2019-03-26T03:04:57.498Z,95968.66
2019-03-26T03:07:28.028Z,95965.26
2019-03-26T03:09:58.516Z,95962.61
2019-03-26T03:12:28.994Z,95970.61
2019-03-26T03:14:59.484Z,95967.33
2019-03-26T03:17:29.953Z,95964.13
2019-03-26T03:20:00.539Z,95973.06
2019-03-26T03:22:31.517Z,95972.41
2019-03-26T03:25:02.135Z,95983.56
2019-03-26T03:27:32.681Z,95987.48
2019-03-26T03:30:03.125Z,95981.19
2019-03-26T03:32:33.572Z,95978.86
2019-03-26T03:35:04.207Z,95986.39
2019-03-26T03:37:34.830Z,95993.42
2019-03-26T03:40:06.452Z,95992.56
2019-03-26T03:42:37.373Z,95991.41
2019-03-26T03:45:10.266Z,96000.49
2019-03-26T03:47:41.189Z,96009.52
2019-03-26T03:50:12.379Z,96002.14
2019-03-26T03:52:43.012Z,95997.72
2019-03-26T03:55:14.049Z,96006.39
2019-03-26T03:57:47.711Z,96007.06
2019-03-26T04:00:35.497Z,96014.09
2019-03-26T04:03:07.045Z,96017.20
2019-03-26T04:05:38.155Z,96021.66
2019-03-26T04:08:08.935Z,96018.38
2019-03-26T04:10:39.645Z,96026.41
2019-03-26T04:13:10.214Z,96026.91
2019-03-26T04:15:40.743Z,96024.04
2019-03-26T04:18:11.440Z,96034.22
2019-03-26T04:20:41.905Z,96035.11
2019-03-26T04:23:12.437Z,96029.83
2019-03-26T04:25:42.959Z,96042.63
2019-03-26T04:28:13.339Z,96045.09
2019-03-26T04:30:43.843Z,96043.52
2019-03-26T04:33:14.294Z,96044.03
2019-03-26T04:35:44.807Z,96053.78
2019-03-26T04:38:15.359Z,96046.36
2019-03-26T04:40:45.782Z,96057.39
2019-03-26T04:43:19.041Z,96061.39
2019-03-26T04:45:48.438Z,96064.86
2019-03-26T04:48:18.905Z,96068.93
2019-03-26T04:50:49.554Z,96065.92
2019-03-26T04:53:21.100Z,96072.05
2019-03-26T04:55:51.700Z,96075.48
2019-03-26T04:58:22.079Z,96080.07
2019-03-26T05:00:52.574Z,96078.88
2019-03-26T05:03:23.000Z,96087.55
2019-03-26T05:05:53.453Z,96088.58
2019-03-26T05:08:24.031Z,96087.53
2019-03-26T05:10:54.521Z,96093.58
2019-03-26T05:13:24.948Z,96086.63
2019-03-26T05:15:55.338Z,96090.18
2019-03-26T05:18:26.356Z,96089.19
2019-03-26T05:20:56.805Z,96093.84
2019-03-26T05:23:27.233Z,96093.31
2019-03-26T05:25:57.768Z,96104.48
2019-03-26T05:28:28.184Z,96098.20
2019-03-26T05:30:58.638Z,96104.44
2019-03-26T05:33:29.220Z,96103.22
2019-03-26T05:35:59.662Z,96107.98
2019-03-26T05:38:30.178Z,96104.53
2019-03-26T05:41:00.713Z,96107.48
2019-03-26T05:43:31.229Z,96107.91
2019-03-26T05:46:01.725Z,96107.91
2019-03-26T05:48:32.162Z,96113.16
2019-03-26T05:51:02.728Z,96113.41
2019-03-26T05:53:33.153Z,96118.14
2019-03-26T05:56:03.648Z,96116.54
2019-03-26T05:58:34.155Z,96116.50
2019-03-26T06:01:04.913Z,96113.23
2019-03-26T06:03:35.470Z,96125.70
2019-03-26T06:06:05.956Z,96125.06
2019-03-26T06:08:36.399Z,96126.53
2019-03-26T06:11:07.052Z,96128.67
2019-03-26T06:13:37.510Z,96128.22
2019-03-26T06:16:08.124Z,96126.47
2019-03-26T06:18:38.647Z,96137.28
2019-03-26T06:21:09.086Z,96140.91
2019-03-26T06:23:40.886Z,96138.50
2019-03-26T06:26:11.408Z,96138.49
2019-03-26T06:28:41.859Z,96146.69
2019-03-26T06:31:12.362Z,96145.63
2019-03-26T06:33:42.814Z,96139.69
2019-03-26T06:36:13.269Z,96149.84
2019-03-26T06:38:43.753Z,96156.27
2019-03-26T06:41:14.281Z,96153.84
2019-03-26T06:43:44.814Z,96158.51
2019-03-26T06:46:15.360Z,96154.34
2019-03-26T06:48:45.919Z,96154.55
2019-03-26T06:51:16.389Z,96164.31
2019-03-26T06:53:46.897Z,96156.34
2019-03-26T06:56:17.352Z,96169.95
2019-03-26T06:58:47.904Z,96155.12
2019-03-26T07:01:18.739Z,96159.65
2019-03-26T07:03:49.299Z,96158.60
2019-03-26T07:06:19.759Z,96162.13
2019-03-26T07:08:50.186Z,96163.34
2019-03-26T07:11:20.683Z,96167.42
2019-03-26T07:13:51.146Z,96186.91
2019-03-26T07:16:21.668Z,96193.41
2019-03-26T07:18:52.738Z,96187.83
2019-03-26T07:21:23.176Z,96190.45
2019-03-26T07:23:53.687Z,96196.49
2019-03-26T07:26:24.292Z,96188.37
2019-03-26T07:28:56.769Z,96192.47
2019-03-26T07:31:26.901Z,96190.07
2019-03-26T07:33:57.333Z,96194.09
2019-03-26T07:36:27.856Z,96191.48
2019-03-26T07:38:58.382Z,96200.01
2019-03-26T07:41:28.733Z,96198.17
2019-03-26T07:43:59.256Z,96194.41
2019-03-26T07:46:29.690Z,96188.57
2019-03-26T07:49:00.065Z,96180.87
2019-03-26T07:51:33.161Z,96199.67
2019-03-26T07:54:03.660Z,96197.15
2019-03-26T07:56:34.096Z,96197.14
2019-03-26T07:59:04.775Z,96200.59
2019-03-26T08:01:35.280Z,96200.72
2019-03-26T08:04:05.855Z,96202.59
2019-03-26T08:06:36.451Z,96206.39
2019-03-26T08:09:07.957Z,96201.11
2019-03-26T08:11:38.522Z,96212.37
2019-03-26T08:14:09.636Z,96211.25
2019-03-26T08:16:40.143Z,96221.08
2019-03-26T08:19:10.779Z,96213.73
2019-03-26T08:21:41.292Z,96205.11
2019-03-26T08:24:11.702Z,96198.58
2019-03-26T08:26:42.237Z,96203.51
2019-03-26T08:29:12.759Z,96194.03
2019-03-26T08:31:43.387Z,96197.25
2019-03-26T08:34:13.816Z,96199.98
2019-03-26T08:36:44.431Z,96201.55
2019-03-26T08:39:14.881Z,96196.78
2019-03-26T08:41:45.349Z,96192.09
2019-03-26T08:44:15.916Z,96199.53
2019-03-26T08:46:46.506Z,96200.99
2019-03-26T08:49:16.937Z,96200.19
2019-03-26T08:51:47.367Z,96213.60
2019-03-26T08:54:17.796Z,96207.93
2019-03-26T08:56:48.222Z,96210.53
2019-03-26T08:59:18.737Z,96213.16
2019-03-26T09:01:49.365Z,96220.82
2019-03-26T09:04:19.728Z,96217.58
2019-03-26T09:06:50.142Z,96225.47
2019-03-26T09:09:20.571Z,96221.39
2019-03-26T09:11:51.109Z,96219.75
2019-03-26T09:14:21.962Z,96225.46
2019-03-26T09:16:52.422Z,96217.64
2019-03-26T09:19:23.215Z,96221.98
2019-03-26T09:21:53.733Z,96213.28
2019-03-26T09:24:25.205Z,96223.80
2019-03-26T09:26:55.626Z,96226.45
2019-03-26T09:29:26.043Z,96238.46
2019-03-26T09:31:56.669Z,96235.05
2019-03-26T09:34:27.179Z,96240.19
2019-03-26T09:36:57.689Z,96236.59
2019-03-26T09:39:28.141Z,96234.75
2019-03-26T09:41:58.763Z,96225.86
2019-03-26T09:44:29.174Z,96234.34
2019-03-26T09:46:59.690Z,96235.47
2019-03-26T09:49:30.074Z,96229.01
2019-03-26T09:52:00.533Z,96235.78
2019-03-26T09:54:30.984Z,96236.98
2019-03-26T09:57:01.638Z,96234.70
2019-03-26T09:59:32.176Z,96243.06
2019-03-26T10:02:02.753Z,96242.69
2019-03-26T10:04:33.230Z,96242.55
2019-03-26T10:07:03.733Z,96244.59
2019-03-26T10:09:34.287Z,96237.19
2019-03-26T10:12:04.808Z,96246.20
2019-03-26T10:14:36.358Z,96243.11
2019-03-26T10:17:06.824Z,96230.88
2019-03-26T10:19:37.377Z,96232.02
2019-03-26T10:22:07.952Z,96236.73
2019-03-26T10:24:38.447Z,96233.20
2019-03-26T10:27:08.946Z,96236.59
2019-03-26T10:29:40.585Z,96234.77
2019-03-26T10:32:11.167Z,96233.48
2019-03-26T10:34:41.677Z,96230.43
2019-03-26T10:37:12.120Z,96227.61
2019-03-26T10:39:42.646Z,96221.96
2019-03-26T10:42:13.085Z,96221.06
2019-03-26T10:44:43.534Z,96214.15
2019-03-26T10:47:14.042Z,96214.13
2019-03-26T10:49:44.462Z,96217.16
2019-03-26T10:52:14.819Z,96210.75
2019-03-26T10:54:45.243Z,96210.43
2019-03-26T10:57:15.746Z,96207.37
2019-03-26T10:59:46.233Z,96207.85
2019-03-26T11:02:17.755Z,96203.73
2019-03-26T11:04:48.191Z,96206.91
2019-03-26T11:07:18.645Z,96208.26
2019-03-26T11:09:49.154Z,96207.03
2019-03-26T11:12:19.857Z,96206.08
2019-03-26T11:14:50.359Z,96209.50
2019-03-26T11:17:20.994Z,96205.53
2019-03-26T11:19:51.481Z,96202.20
2019-03-26T11:22:21.989Z,96199.31
2019-03-26T11:24:52.427Z,96197.11
2019-03-26T11:27:22.930Z,96194.12
2019-03-26T11:29:54.510Z,96189.64
2019-03-26T11:32:25.113Z,96198.13
2019-03-26T11:34:55.541Z,96198.30
2019-03-26T11:37:26.181Z,96199.64
2019-03-26T11:39:56.588Z,96197.94
2019-03-26T11:42:27.104Z,96196.91
2019-03-26T11:44:59.383Z,96192.63
2019-03-26T11:47:29.913Z,96190.70
2019-03-26T11:50:00.369Z,96181.59
2019-03-26T11:52:30.713Z,96192.34
2019-03-26T11:55:01.209Z,96190.75
2019-03-26T11:57:31.642Z,96183.43
2019-03-26T12:00:02.070Z,96181.97
2019-03-26T12:02:33.104Z,96191.97
2019-03-26T12:05:03.645Z,96185.35
2019-03-26T12:07:34.135Z,96190.57
2019-03-26T12:10:05.378Z,96185.58
2019-03-26T12:12:35.918Z,96191.81
2019-03-26T12:15:07.813Z,96186.00
2019-03-26T12:17:38.265Z,96192.50
2019-03-26T12:20:10.429Z,96183.06
2019-03-26T12:22:40.970Z,96185.66
2019-03-26T12:25:11.687Z,96184.22
2019-03-26T12:27:42.424Z,96184.67
2019-03-26T12:30:13.370Z,96191.09
2019-03-26T12:32:43.908Z,96188.98
2019-03-26T12:35:37.037Z,96191.78
2019-03-26T12:38:20.453Z,96187.75
2019-03-26T12:40:51.434Z,96188.22
2019-03-26T12:43:22.265Z,96194.45
2019-03-26T12:45:52.792Z,96191.70
2019-03-26T12:48:23.254Z,96185.17
2019-03-26T12:50:53.885Z,96172.70
2019-03-26T12:53:24.569Z,96177.19
2019-03-26T12:55:55.011Z,96184.36
2019-03-26T12:58:31.655Z,96176.85
2019-03-26T13:00:58.679Z,96174.45
2019-03-26T13:03:29.308Z,96171.66
2019-03-26T13:05:59.879Z,96175.33
2019-03-26T13:08:30.445Z,96168.23
2019-03-26T13:11:01.085Z,96174.42
2019-03-26T13:13:31.534Z,96176.94
2019-03-26T13:16:02.106Z,96174.05
2019-03-26T13:18:32.665Z,96167.86
2019-03-26T13:21:03.781Z,96173.51
2019-03-26T13:23:34.442Z,96169.83
2019-03-26T13:26:06.369Z,96174.78
2019-03-26T13:28:36.997Z,96168.20
2019-03-26T13:31:07.554Z,96167.41
2019-03-26T13:33:38.844Z,96167.96
2019-03-26T13:36:09.785Z,96167.48
2019-03-26T13:38:40.355Z,96158.20
2019-03-26T13:41:11.048Z,96160.23
2019-03-26T13:43:41.712Z,96157.88
2019-03-26T13:46:12.274Z,96158.58
2019-03-26T13:48:42.827Z,96153.76
2019-03-26T13:51:13.205Z,96155.01
2019-03-26T13:53:43.877Z,96156.95
2019-03-26T13:56:14.421Z,96150.25
2019-03-26T13:58:44.971Z,96153.65
2019-03-26T14:01:16.494Z,96147.23
2019-03-26T14:03:47.351Z,96134.03
2019-03-26T14:06:18.010Z,96137.48
2019-03-26T14:08:48.527Z,96144.95
2019-03-26T14:11:19.061Z,96141.55
2019-03-26T14:13:49.517Z,96138.66
2019-03-26T14:16:19.991Z,96144.37
2019-03-26T14:18:50.592Z,96138.16
2019-03-26T14:21:21.171Z,96142.45
2019-03-26T14:23:51.620Z,96144.37
2019-03-26T14:26:22.186Z,96134.25
2019-03-26T14:28:52.738Z,96132.92
2019-03-26T14:31:23.681Z,96128.24
2019-03-26T14:33:54.403Z,96125.82
2019-03-26T14:36:24.838Z,96126.48
2019-03-26T14:38:55.378Z,96116.73
2019-03-26T14:41:25.810Z,96117.08
2019-03-26T14:43:57.345Z,96126.38
2019-03-26T14:46:27.875Z,96123.54
2019-03-26T14:48:58.443Z,96122.88
2019-03-26T14:51:29.259Z,96121.78
2019-03-26T14:53:59.707Z,96121.52
2019-03-26T14:56:30.306Z,96118.66
2019-03-26T14:59:00.739Z,96121.28
2019-03-26T15:01:31.237Z,96131.70
2019-03-26T15:04:01.775Z,96123.69
2019-03-26T15:06:33.178Z,96133.02
2019-03-26T15:09:04.461Z,96126.66
2019-03-26T15:11:35.005Z,96123.45
2019-03-26T15:14:05.525Z,96129.84
2019-03-26T15:16:36.954Z,96141.03
2019-03-26T15:19:07.514Z,96129.20
2019-03-26T15:21:38.441Z,96115.90
2019-03-26T15:24:08.878Z,96119.30
2019-03-26T15:26:39.380Z,96119.14
2019-03-26T15:29:10.021Z,96124.91
2019-03-26T15:31:40.769Z,96130.96
2019-03-26T15:34:11.294Z,96123.30
2019-03-26T15:36:41.866Z,96123.45
2019-03-26T15:39:12.373Z,96126.14
2019-03-26T15:41:42.910Z,96126.62
2019-03-26T15:44:13.434Z,96122.66
2019-03-26T15:46:44.001Z,96115.58
2019-03-26T15:49:14.483Z,96113.37
2019-03-26T15:51:45.957Z,96114.63
2019-03-26T15:54:16.385Z,96116.09
2019-03-26T15:56:47.018Z,96120.08
2019-03-26T15:59:17.470Z,96132.56
2019-03-26T16:01:47.919Z,96127.45
2019-03-26T16:04:18.438Z,96130.96
2019-03-26T16:06:48.977Z,96128.53
2019-03-26T16:09:19.476Z,96129.02
2019-03-26T16:11:49.987Z,96123.36
2019-03-26T16:14:20.571Z,96128.37
2019-03-26T16:16:50.990Z,96124.21
2019-03-26T16:19:32.291Z,96131.09
2019-03-26T16:21:54.104Z,96133.69
2019-03-26T16:24:24.578Z,96137.05
2019-03-26T16:26:55.150Z,96143.73
2019-03-26T16:29:26.180Z,96150.53
2019-03-26T16:31:56.655Z,96143.66
2019-03-26T16:34:27.265Z,96140.77
2019-03-26T16:37:00.143Z,96138.34
2019-03-26T16:39:30.794Z,96137.88
2019-03-26T16:42:01.391Z,96144.11
2019-03-26T16:44:31.848Z,96147.14
2019-03-26T16:47:02.290Z,96155.34
2019-03-26T16:49:32.792Z,96149.36
2019-03-26T16:52:03.217Z,96146.33
2019-03-26T16:54:33.757Z,96154.95
2019-03-26T16:57:04.286Z,96163.41
2019-03-26T16:59:34.893Z,96161.44
2019-03-26T17:02:05.529Z,96154.42
2019-03-26T17:04:35.914Z,96158.34
2019-03-26T17:07:07.460Z,96159.66
2019-03-26T17:09:37.866Z,96157.64
2019-03-26T17:12:09.443Z,96165.22
2019-03-26T17:14:39.868Z,96164.59
2019-03-26T17:17:11.466Z,96162.13
2019-03-26T17:19:41.993Z,96164.06
2019-03-26T17:22:12.715Z,96167.72
2019-03-26T17:24:43.221Z,96166.44
2019-03-26T17:27:13.777Z,96164.80
2019-03-26T17:29:44.282Z,96170.98
2019-03-26T17:32:14.724Z,96165.67
2019-03-26T17:34:45.911Z,96161.09
2019-03-26T17:37:16.353Z,96165.76
2019-03-26T17:39:46.778Z,96174.11
2019-03-26T17:42:17.870Z,96175.58
2019-03-26T17:44:48.705Z,96174.99
2019-03-26T17:47:20.115Z,96176.85
2019-03-26T17:49:50.550Z,96181.63
2019-03-26T17:52:20.897Z,96188.76
2019-03-26T17:54:51.432Z,96194.20
2019-03-26T17:57:21.948Z,96197.08
2019-03-26T17:59:52.382Z,96196.42
2019-03-26T18:02:22.890Z,96195.14
2019-03-26T18:04:53.445Z,96201.92
2019-03-26T18:07:23.855Z,96207.27
2019-03-26T18:09:54.398Z,96209.28
2019-03-26T18:12:30.772Z,96210.97
2019-03-26T18:14:57.190Z,96215.89
2019-03-26T18:17:27.719Z,96208.77
2019-03-26T18:19:58.149Z,96212.89
2019-03-26T18:22:28.672Z,96218.58
2019-03-26T18:24:59.139Z,96215.20
2019-03-26T18:27:29.741Z,96219.23
2019-03-26T18:30:00.412Z,96210.48
2019-03-26T18:32:30.859Z,96208.55
2019-03-26T18:35:01.330Z,96212.20
2019-03-26T18:37:32.930Z,96220.84
2019-03-26T18:40:03.655Z,96221.71
2019-03-26T18:42:43.980Z,96228.16
2019-03-26T18:45:06.859Z,96227.10
2019-03-26T18:47:37.369Z,96234.88
2019-03-26T18:50:08.208Z,96235.57
2019-03-26T18:52:38.903Z,96234.41
2019-03-26T18:55:09.767Z,96236.46
2019-03-26T18:57:40.302Z,96232.06
2019-03-26T19:00:11.846Z,96229.30
2019-03-26T19:02:42.928Z,96235.20
2019-03-26T19:05:13.738Z,96239.50
2019-03-26T19:07:44.282Z,96238.06
2019-03-26T19:10:26.969Z,96240.41
2019-03-26T19:12:57.518Z,96241.61
2019-03-26T19:15:29.193Z,96237.24
2019-03-26T19:17:59.811Z,96245.55
2019-03-26T19:20:30.652Z,96237.71
2019-03-26T19:23:01.401Z,96241.26
2019-03-26T19:25:33.060Z,96243.95
2019-03-26T19:28:03.624Z,96255.91
2019-03-26T19:30:35.289Z,96257.63
2019-03-26T19:33:05.909Z,96251.57
2019-03-26T19:35:36.641Z,96245.39
2019-03-26T19:38:07.326Z,96247.36
2019-03-26T19:40:37.900Z,96242.48
2019-03-26T19:43:11.232Z,96242.20
2019-03-26T19:45:40.781Z,96243.80
2019-03-26T19:48:11.141Z,96241.11
2019-03-26T19:50:41.569Z,96240.93
2019-03-26T19:53:12.013Z,96239.20
2019-03-26T19:55:42.582Z,96238.38
2019-03-26T19:58:12.982Z,96235.09
2019-03-26T20:00:43.497Z,96235.80
2019-03-26T20:03:13.963Z,96240.52
2019-03-26T20:05:45.335Z,96240.62
2019-03-26T20:08:15.842Z,96246.95
2019-03-26T20:10:46.309Z,96247.94
2019-03-26T20:13:24.299Z,96246.39
2019-03-26T20:15:49.112Z,96248.22
2019-03-26T20:18:19.538Z,96252.14
2019-03-26T20:21:08.877Z,96255.64
2019-03-26T20:23:39.510Z,96253.84
2019-03-26T20:26:10.036Z,96248.55
2019-03-26T20:28:40.641Z,96254.59
2019-03-26T20:31:11.177Z,96254.75
2019-03-26T20:33:42.541Z,96252.62
2019-03-26T20:36:13.745Z,96254.38
2019-03-26T20:38:44.171Z,96261.95
2019-03-26T20:41:14.679Z,96272.91
2019-03-26T20:43:45.181Z,96263.09
2019-03-26T20:46:15.710Z,96270.86
2019-03-26T20:48:46.331Z,96276.89
2019-03-26T20:51:16.768Z,96271.04
2019-03-26T20:53:47.209Z,96276.98
2019-03-26T20:56:17.921Z,96271.30
2019-03-26T20:58:48.817Z,96271.95
2019-03-26T21:01:19.331Z,96273.30
2019-03-26T21:03:49.828Z,96273.48
2019-03-26T21:06:20.368Z,96272.97
2019-03-26T21:08:50.813Z,96265.18
2019-03-26T21:11:21.341Z,96266.86
2019-03-26T21:13:51.825Z,96272.63
2019-03-26T21:16:22.262Z,96282.49
2019-03-26T21:18:52.770Z,96282.26
2019-03-26T21:21:23.404Z,96283.72
2019-03-26T21:23:53.827Z,96286.27
2019-03-26T21:26:24.623Z,96290.47
2019-03-26T21:28:55.102Z,96294.52
2019-03-26T21:31:25.591Z,96286.14
2019-03-26T21:33:56.130Z,96292.97
2019-03-26T21:36:26.633Z,96289.11
2019-03-26T21:38:57.148Z,96295.89
2019-03-26T21:41:27.768Z,96295.76
2019-03-26T21:44:04.315Z,96293.02
2019-03-26T21:46:30.320Z,96294.93
2019-03-26T21:49:00.767Z,96293.73
2019-03-26T21:51:31.379Z,96290.38
2019-03-26T21:54:01.915Z,96285.17
2019-03-26T21:56:32.354Z,96293.67
2019-03-26T21:59:02.975Z,96297.88
2019-03-26T22:01:33.518Z,96284.33
2019-03-26T22:04:04.111Z,96289.90
2019-03-26T22:06:34.713Z,96293.12
2019-03-26T22:09:06.362Z,96292.78
2019-03-26T22:11:49.104Z,96292.69
2019-03-26T22:14:17.904Z,96294.81
2019-03-26T22:16:43.776Z,96302.30
2019-03-26T22:19:27.488Z,96286.37
2019-03-26T22:21:47.558Z,96286.97
2019-03-26T22:24:17.943Z,96295.88
2019-03-26T22:26:48.909Z,96298.88
2019-03-26T22:29:19.308Z,96306.55
2019-03-26T22:31:49.766Z,96299.16
2019-03-26T22:34:20.351Z,96316.72
2019-03-26T22:36:51.167Z,96330.41
2019-03-26T22:39:21.888Z,96336.44
2019-03-26T22:41:52.398Z,96340.88
2019-03-26T22:44:31.337Z,96340.63
2019-03-26T22:46:54.995Z,96339.13
2019-03-26T22:49:25.437Z,96339.27
2019-03-26T22:51:56.008Z,96327.41
2019-03-26T22:54:26.596Z,96332.03
2019-03-26T22:56:57.278Z,96329.30
2019-03-26T22:59:28.023Z,96324.39
2019-03-26T23:01:58.593Z,96325.20
2019-03-26T23:04:48.097Z,96331.95
2019-03-26T23:07:18.595Z,96332.52
2019-03-26T23:09:49.023Z,96325.81
2019-03-26T23:12:19.606Z,96323.81
2019-03-26T23:14:51.289Z,96324.41
2019-03-26T23:17:21.865Z,96325.75
2019-03-26T23:19:52.433Z,96323.47
2019-03-26T23:22:23.030Z,96318.92
2019-03-26T23:24:53.473Z,96319.87
2019-03-26T23:27:23.895Z,96313.34
2019-03-26T23:29:54.542Z,96317.41
2019-03-26T23:32:24.986Z,96309.70
2019-03-26T23:34:55.442Z,96317.37
2019-03-26T23:37:26.783Z,96325.53
2019-03-26T23:39:57.276Z,96320.73
2019-03-26T23:42:27.754Z,96314.81
2019-03-26T23:44:58.856Z,96313.65
2019-03-26T23:47:29.445Z,96316.02
2019-03-26T23:49:59.908Z,96315.80
2019-03-26T23:52:30.446Z,96317.91
2019-03-26T23:55:01.013Z,96315.28
2019-03-26T23:57:31.527Z,96310.69
